Time;durP1;ratioP1;P1;durP2;ratioP2;P2;SDS_P1;SDS_P2;PMS_P1;PMS_P2;Temp;Humidity;BMP_temperature;BMP_pressure;BME280_temperature;BME280_humidity;BME280_pressure;Samples;Min_cycle;Max_cycle;Signal;HPM_P1;HPM_P2
2024/01/05 00:02:19;;;;;;;2.27;1.63;;;;;;;1.87;100.00;100231.88;5064130;28;20207;-73
2024/01/05 00:04:46;;;;;;;1.97;1.63;;;;;;;1.87;100.00;100222.22;5064162;28;20223;-73
2024/01/05 00:07:13;;;;;;;2.93;1.83;;;;;;;1.89;100.00;100229.75;5062544;28;20195;-73
2024/01/05 00:09:40;;;;;;;2.67;1.60;;;;;;;1.89;100.00;100224.53;5060439;28;20203;-73
2024/01/05 00:12:07;;;;;;;1.27;1.17;;;;;;;1.89;100.00;100224.53;5060780;28;20194;-73
2024/01/05 00:14:33;;;;;;;1.97;1.50;;;;;;;1.87;100.00;100230.00;5065084;28;20223;-73
2024/01/05 00:17:00;;;;;;;1.83;1.40;;;;;;;1.88;100.00;100236.00;5064421;28;20214;-73
2024/01/05 00:19:26;;;;;;;1.70;1.60;;;;;;;1.88;100.00;100225.59;5062930;28;20198;-73
2024/01/05 00:21:52;;;;;;;2.23;1.40;;;;;;;1.86;100.00;100225.88;5066424;28;20202;-73
2024/01/05 00:24:20;;;;;;;2.57;1.70;;;;;;;1.86;100.00;100223.25;5059602;28;20227;-73
2024/01/05 00:26:46;;;;;;;1.67;1.30;;;;;;;1.83;100.00;100210.78;5065479;28;20190;-73
2024/01/05 00:29:13;;;;;;;1.63;1.53;;;;;;;1.82;100.00;100213.69;5064578;28;20650;-72
2024/01/05 00:31:39;;;;;;;2.70;1.77;;;;;;;1.79;100.00;100207.22;5060816;28;20583;-73
2024/01/05 00:34:05;;;;;;;1.50;1.40;;;;;;;1.76;100.00;100210.34;5061258;28;20282;-73
2024/01/05 00:36:32;;;;;;;3.03;1.57;;;;;;;1.73;100.00;100210.13;5061502;28;20573;-73
2024/01/05 00:38:58;;;;;;;2.80;1.47;;;;;;;1.70;100.00;100214.06;5062402;28;20199;-73
2024/01/05 00:41:26;;;;;;;5.03;1.57;;;;;;;1.69;100.00;100214.34;5067483;28;20206;-72
2024/01/05 00:43:52;;;;;;;2.00;1.50;;;;;;;1.66;100.00;100210.44;5062068;28;20202;-73
2024/01/05 00:46:18;;;;;;;2.17;1.43;;;;;;;1.65;100.00;100208.91;5060386;28;20205;-73
2024/01/05 00:48:45;;;;;;;2.67;1.67;;;;;;;1.66;100.00;100207.09;5067334;28;20198;-73
2024/01/05 00:51:11;;;;;;;3.33;1.50;;;;;;;1.66;100.00;100202.66;5064276;28;20525;-73
2024/01/05 00:53:37;;;;;;;3.83;1.70;;;;;;;1.67;100.00;100200.84;5060954;28;20195;-73
2024/01/05 00:56:05;;;;;;;2.30;1.60;;;;;;;1.68;100.00;100200.56;5061676;28;20219;-73
2024/01/05 00:58:33;;;;;;;1.83;1.50;;;;;;;1.69;100.00;100198.72;5064454;28;20737;-73
2024/01/05 01:00:59;;;;;;;2.27;1.50;;;;;;;1.68;100.00;100203.16;5063821;28;20202;-73
2024/01/05 01:03:25;;;;;;;2.07;1.60;;;;;;;1.69;100.00;100193.50;5064601;28;20195;-73
2024/01/05 01:05:52;;;;;;;2.67;1.50;;;;;;;1.70;100.00;100197.66;5059245;28;20701;-73
2024/01/05 01:08:18;;;;;;;2.50;1.50;;;;;;;1.70;100.00;100195.84;5067181;28;20222;-72
2024/01/05 01:10:44;;;;;;;2.47;1.60;;;;;;;1.71;100.00;100199.22;5064275;28;20203;-73
2024/01/05 01:13:11;;;;;;;2.40;1.60;;;;;;;1.70;100.00;100201.06;5060506;28;20201;-72
2024/01/05 01:15:38;;;;;;;1.90;1.50;;;;;;;1.69;100.00;100204.72;5061821;28;20469;-73
2024/01/05 01:18:05;;;;;;;2.33;1.63;;;;;;;1.70;100.00;100198.44;5062492;28;20218;-73
2024/01/05 01:20:31;;;;;;;1.60;1.50;;;;;;;1.70;100.00;100193.25;5060905;28;20226;-73
2024/01/05 01:22:57;;;;;;;2.83;1.70;;;;;;;1.70;100.00;100189.84;5059531;28;20256;-73
2024/01/05 01:25:24;;;;;;;2.23;1.53;;;;;;;1.71;100.00;100188.81;5059244;28;20225;-73
2024/01/05 01:27:50;;;;;;;2.53;2.00;;;;;;;1.69;100.00;100191.69;5064190;28;20191;-72
2024/01/05 01:30:17;;;;;;;2.47;1.57;;;;;;;1.68;100.00;100186.75;5061827;28;20202;-73
2024/01/05 01:32:45;;;;;;;1.50;1.10;;;;;;;1.68;100.00;100192.75;5060129;28;20292;-73
2024/01/05 01:35:12;;;;;;;1.47;1.37;;;;;;;1.67;100.00;100187.81;5064441;28;20649;-73
2024/01/05 01:37:39;;;;;;;1.93;1.50;;;;;;;1.67;100.00;100193.03;5056808;28;20238;-72
2024/01/05 01:40:08;;;;;;;1.47;1.27;;;;;;;1.66;100.00;100196.69;5062039;28;20209;-73
2024/01/05 01:42:36;;;;;;;2.80;1.33;;;;;;;1.67;100.00;100198.97;5056984;28;20218;-73
2024/01/05 01:45:02;;;;;;;1.90;1.67;;;;;;;1.67;100.00;100208.63;5057066;28;20291;-73
2024/01/05 01:47:29;;;;;;;2.63;1.60;;;;;;;1.68;100.00;100199.78;5062599;28;20743;-73
2024/01/05 01:49:57;;;;;;;1.60;1.50;;;;;;;1.69;100.00;100199.50;5062641;28;20191;-73
2024/01/05 01:52:25;;;;;;;1.53;1.30;;;;;;;1.69;100.00;100196.91;5061483;28;20665;-73
2024/01/05 01:54:51;;;;;;;2.47;1.70;;;;;;;1.70;100.00;100214.06;5062812;28;20210;-73
2024/01/05 01:57:18;;;;;;;1.50;1.40;;;;;;;1.72;100.00;100214.56;5062541;28;20708;-73
2024/01/05 01:59:45;;;;;;;1.83;1.50;;;;;;;1.73;100.00;100216.13;5064409;28;20203;-73
2024/01/05 02:02:12;;;;;;;2.87;1.57;;;;;;;1.74;100.00;100214.28;5061990;28;20231;-73
2024/01/05 02:04:40;;;;;;;1.83;1.50;;;;;;;1.78;100.00;100217.88;5057906;28;20599;-73
2024/01/05 02:07:08;;;;;;;2.83;1.60;;;;;;;1.78;100.00;100218.69;5060487;28;20565;-72
2024/01/05 02:09:35;;;;;;;1.83;1.63;;;;;;;1.79;100.00;100204.59;5058265;28;20195;-73
2024/01/05 02:12:02;;;;;;;2.57;1.97;;;;;;;1.80;100.00;100203.53;5057629;28;20565;-73
2024/01/05 02:14:28;;;;;;;2.37;1.93;;;;;;;1.82;100.00;100209.25;5059381;28;20226;-72
2024/01/05 02:16:55;;;;;;;3.30;1.97;;;;;;;1.82;100.00;100201.44;5058172;28;20731;-72
2024/01/05 02:19:22;;;;;;;3.50;2.03;;;;;;;1.82;100.00;100185.81;5061580;28;20219;-73
2024/01/05 02:21:53;;;;;;;1.93;1.80;;;;;;;1.85;100.00;100185.28;5057951;28;20199;-73
2024/01/05 02:24:21;;;;;;;3.30;2.20;;;;;;;1.84;100.00;100175.13;5059595;28;20218;-73
2024/01/05 02:26:47;;;;;;;3.07;1.83;;;;;;;1.84;100.00;100175.91;5062778;28;20202;-73
2024/01/05 02:29:20;;;;;;;2.57;2.00;;;;;;;1.87;100.00;100185.00;5059047;28;20198;-73
2024/01/05 02:31:46;;;;;;;2.40;2.03;;;;;;;1.86;100.00;100184.22;5057867;28;20202;-73
2024/01/05 02:34:12;;;;;;;2.27;1.77;;;;;;;1.87;100.00;100185.75;5058892;28;20230;-73
2024/01/05 02:36:39;;;;;;;1.90;1.60;;;;;;;1.88;100.00;100192.50;5059414;28;20199;-73
2024/01/05 02:39:05;;;;;;;2.23;2.00;;;;;;;1.89;100.00;100196.69;5059171;28;20585;-73
2024/01/05 02:41:34;;;;;;;2.47;1.80;;;;;;;1.89;100.00;100193.31;5059621;28;20648;-73
2024/01/05 02:44:01;;;;;;;2.60;1.83;;;;;;;1.90;100.00;100189.63;5057695;28;20238;-72
2024/01/05 02:46:27;;;;;;;2.13;1.80;;;;;;;1.90;100.00;100187.81;5060635;28;20200;-73
2024/01/05 02:48:54;;;;;;;3.83;2.10;;;;;;;1.89;100.00;100180.28;5060135;28;20198;-73
2024/01/05 02:51:20;;;;;;;2.67;1.80;;;;;;;1.88;100.00;100171.69;5062176;28;20200;-73
2024/01/05 02:53:46;;;;;;;2.13;1.87;;;;;;;1.89;100.00;100169.88;5059536;28;20182;-73
2024/01/05 02:56:19;;;;;;;1.87;1.57;;;;;;;1.89;100.00;100162.84;5057175;28;20292;-73
2024/01/05 02:58:47;;;;;;;3.17;1.70;;;;;;;1.89;100.00;100165.44;5061458;28;20215;-73
2024/01/05 03:01:15;;;;;;;2.17;1.63;;;;;;;1.88;100.00;100170.94;5060687;28;20202;-73
2024/01/05 03:03:42;;;;;;;2.90;1.87;;;;;;;1.89;100.00;100154.25;5058600;28;20559;-73
2024/01/05 03:06:08;;;;;;;2.20;2.00;;;;;;;1.88;100.00;100160.50;5061153;28;20695;-73
2024/01/05 03:08:34;;;;;;;2.63;2.00;;;;;;;1.88;100.00;100160.50;5057097;28;20689;-73
2024/01/05 03:11:01;;;;;;;2.93;2.03;;;;;;;1.87;100.00;100148.56;5061135;28;20210;-73
2024/01/05 03:13:27;;;;;;;1.77;1.50;;;;;;;1.88;100.00;100153.47;5060629;28;20796;-73
2024/01/05 03:15:56;;;;;;;3.03;2.10;;;;;;;1.85;100.00;100148.03;5057850;28;20222;-73
2024/01/05 03:18:22;;;;;;;2.10;1.70;;;;;;;1.88;100.00;100155.31;5056219;28;20214;-73
2024/01/05 03:20:48;;;;;;;2.60;1.90;;;;;;;1.86;100.00;100155.59;5063247;28;20195;-72
2024/01/05 03:23:15;;;;;;;1.93;1.77;;;;;;;1.88;100.00;100157.91;5061404;28;20229;-73
2024/01/05 03:25:42;;;;;;;1.90;1.70;;;;;;;1.89;100.00;100154.25;5066433;28;20309;-72
2024/01/05 03:28:10;;;;;;;2.00;1.80;;;;;;;1.89;100.00;100156.84;5058917;28;20192;-73
2024/01/05 03:30:36;;;;;;;2.30;1.63;;;;;;;1.87;100.00;100146.72;5064914;28;20195;-73
2024/01/05 03:33:05;;;;;;;3.63;1.83;;;;;;;1.88;100.00;100143.06;5062604;28;20539;-73
2024/01/05 03:35:31;;;;;;;2.30;1.77;;;;;;;1.89;100.00;100146.44;5064476;28;20222;-73
2024/01/05 03:37:58;;;;;;;1.73;1.50;;;;;;;1.87;100.00;100144.09;5058680;28;20241;-73
2024/01/05 03:40:24;;;;;;;3.10;1.67;;;;;;;1.87;100.00;100146.72;5061750;28;20668;-73
2024/01/05 03:42:51;;;;;;;1.70;1.40;;;;;;;1.88;100.00;100139.69;5065834;28;20201;-73
2024/01/05 03:45:17;;;;;;;2.07;1.70;;;;;;;1.87;100.00;100136.31;5062981;28;20223;-73
2024/01/05 03:47:43;;;;;;;1.50;1.40;;;;;;;1.86;100.00;100131.38;5062034;28;20204;-73
2024/01/05 03:50:11;;;;;;;2.10;1.83;;;;;;;1.86;100.00;100126.94;5066517;28;20199;-73
2024/01/05 03:52:37;;;;;;;1.70;1.60;;;;;;;1.84;100.00;100123.84;5064805;28;20215;-73
2024/01/05 03:55:04;;;;;;;3.20;1.60;;;;;;;1.85;100.00;100122.81;5059408;28;20219;-73
2024/01/05 03:57:31;;;;;;;3.00;1.60;;;;;;;1.83;100.00;100119.69;5060738;28;20206;-73
2024/01/05 03:59:57;;;;;;;1.87;1.60;;;;;;;1.84;100.00;100125.69;5062527;28;20264;-73
2024/01/05 04:02:24;;;;;;;2.20;1.77;;;;;;;1.83;100.00;100122.28;5064332;28;20219;-73
2024/01/05 04:04:50;;;;;;;2.50;1.73;;;;;;;1.85;100.00;100120.19;5062379;28;20223;-73
2024/01/05 04:07:18;;;;;;;3.13;1.70;;;;;;;1.85;100.00;100132.44;5060862;28;20213;-73
2024/01/05 04:09:44;;;;;;;1.90;1.70;;;;;;;1.84;100.00;100123.06;5064970;28;20199;-73
2024/01/05 04:12:11;;;;;;;3.03;1.80;;;;;;;1.84;100.00;100120.47;5061278;28;20661;-73
2024/01/05 04:14:37;;;;;;;2.30;1.80;;;;;;;1.84;100.00;100117.88;5063040;28;20859;-72
2024/01/05 04:17:04;;;;;;;2.70;1.63;;;;;;;1.86;100.00;100118.34;5063760;28;20202;-73
2024/01/05 04:19:30;;;;;;;2.00;1.80;;;;;;;1.84;100.00;100117.88;5058456;28;20214;-72
2024/01/05 04:21:56;;;;;;;1.90;1.57;;;;;;;1.84;100.00;100120.47;5064971;28;20198;-72
2024/01/05 04:24:24;;;;;;;2.80;1.80;;;;;;;1.86;100.00;100115.75;5060993;28;20215;-73
2024/01/05 04:26:50;;;;;;;2.83;2.07;;;;;;;1.84;100.00;100118.66;5063982;28;20554;-73
2024/01/05 04:29:17;;;;;;;2.47;1.83;;;;;;;1.83;100.00;100109.28;5063961;28;20201;-73
2024/01/05 04:31:43;;;;;;;2.60;2.00;;;;;;;1.82;100.00;100105.13;5060971;28;20210;-73
2024/01/05 04:34:10;;;;;;;2.30;1.67;;;;;;;1.84;100.00;100103.03;5061559;28;20225;-73
2024/01/05 04:36:36;;;;;;;4.67;2.83;;;;;;;1.85;100.00;100101.19;5064549;28;20203;-73
2024/01/05 04:39:03;;;;;;;3.70;2.10;;;;;;;1.85;100.00;100095.97;5064480;28;20211;-73
2024/01/05 04:41:30;;;;;;;3.83;1.90;;;;;;;1.85;100.00;100085.56;5063715;28;20468;-73
2024/01/05 04:43:57;;;;;;;3.90;2.00;;;;;;;1.86;100.00;100077.50;5064662;28;20206;-73
2024/01/05 04:46:24;;;;;;;3.67;2.50;;;;;;;1.85;100.00;100075.94;5063280;28;20661;-73
2024/01/05 04:48:50;;;;;;;4.23;2.73;;;;;;;1.86;100.00;100061.88;5058933;28;20199;-73
2024/01/05 04:51:16;;;;;;;5.60;3.60;;;;;;;1.85;100.00;100073.34;5054192;28;20187;-73
2024/01/05 04:53:43;;;;;;;3.23;2.17;;;;;;;1.85;100.00;100062.16;5058821;28;20202;-73
2024/01/05 04:56:09;;;;;;;4.77;2.50;;;;;;;1.82;100.00;100071.28;5063150;28;20569;-72
2024/01/05 04:58:37;;;;;;;5.77;2.40;;;;;;;1.82;100.00;100071.28;5062467;28;20539;-73
2024/01/05 05:01:03;;;;;;;3.13;2.10;;;;;;;1.82;100.00;100060.13;5074282;28;20213;-73
2024/01/05 05:03:30;;;;;;;2.77;2.20;;;;;;;1.80;100.00;100052.59;5060610;28;20206;-72
2024/01/05 05:05:57;;;;;;;3.03;2.00;;;;;;;1.79;100.00;100043.22;5066105;28;20229;-73
2024/01/05 05:08:23;;;;;;;3.10;2.03;;;;;;;1.80;100.00;100049.97;5061680;28;20202;-73
2024/01/05 05:10:50;;;;;;;2.67;2.20;;;;;;;1.80;100.00;100047.38;5061263;28;20195;-73
2024/01/05 05:13:16;;;;;;;3.13;2.20;;;;;;;1.79;100.00;100043.22;5061592;28;20195;-73
2024/01/05 05:15:44;;;;;;;3.10;1.70;;;;;;;1.80;100.00;100047.38;5063980;28;20223;-73
2024/01/05 05:18:10;;;;;;;3.20;2.00;;;;;;;1.79;100.00;100047.66;5063561;28;20190;-72
2024/01/05 05:20:37;;;;;;;4.00;2.13;;;;;;;1.79;100.00;100047.66;5060280;28;20199;-72
2024/01/05 05:23:03;;;;;;;3.60;1.90;;;;;;;1.80;100.00;100041.38;5062430;28;20194;-73
2024/01/05 05:25:30;;;;;;;3.00;2.20;;;;;;;1.79;100.00;100045.84;5063517;28;20218;-73
2024/01/05 05:27:56;;;;;;;2.83;2.17;;;;;;;1.80;100.00;100044.00;5063792;28;20665;-72
2024/01/05 05:30:22;;;;;;;2.10;1.90;;;;;;;1.78;100.00;100039.09;5063442;28;20282;-73
2024/01/05 05:32:50;;;;;;;2.30;2.00;;;;;;;1.80;100.00;100036.97;5058329;28;20569;-73
2024/01/05 05:35:16;;;;;;;2.50;2.03;;;;;;;1.78;100.00;100022.69;5063786;28;20696;-72
2024/01/05 05:37:43;;;;;;;3.63;2.37;;;;;;;1.73;100.00;100028.75;5060656;28;20672;-73
2024/01/05 05:40:10;;;;;;;3.30;2.10;;;;;;;1.74;100.00;100025.06;5056953;28;20207;-72
2024/01/05 05:42:36;;;;;;;4.17;2.40;;;;;;;1.77;100.00;100031.56;5063753;28;20211;-73
2024/01/05 05:45:03;;;;;;;3.20;2.47;;;;;;;1.74;100.00;100035.50;5059283;28;20222;-72
2024/01/05 05:47:29;;;;;;;3.03;2.00;;;;;;;1.75;100.00;100031.03;5062197;28;20210;-73
2024/01/05 05:49:57;;;;;;;2.90;2.20;;;;;;;1.74;100.00;100030.28;5060053;28;20194;-73
2024/01/05 05:52:23;;;;;;;4.17;2.60;;;;;;;1.77;100.00;100024.50;5060164;28;20191;-72
2024/01/05 05:54:50;;;;;;;3.00;2.20;;;;;;;1.73;100.00;100025.34;5059916;28;20227;-73
2024/01/05 05:57:17;;;;;;;2.90;2.03;;;;;;;1.72;100.00;100029.78;5059364;28;20206;-73
2024/01/05 05:59:43;;;;;;;3.73;1.90;;;;;;;1.75;100.00;100033.66;5065026;28;20215;-73
2024/01/05 06:02:09;;;;;;;2.10;1.90;;;;;;;1.74;100.00;100026.91;5057052;28;20201;-72
2024/01/05 06:04:36;;;;;;;5.23;2.13;;;;;;;1.75;100.00;100028.44;5061945;28;20222;-73
2024/01/05 06:07:04;;;;;;;4.50;2.00;;;;;;;1.73;100.00;100036.56;5062106;28;20218;-72
2024/01/05 06:09:30;;;;;;;2.87;2.10;;;;;;;1.74;100.00;100039.91;5059175;28;20202;-73
2024/01/05 06:11:56;;;;;;;3.73;2.00;;;;;;;1.75;100.00;100041.44;5056239;28;20195;-73
2024/01/05 06:14:23;;;;;;;2.73;1.90;;;;;;;1.78;100.00;100061.72;5055233;28;20307;-73
2024/01/05 06:16:49;;;;;;;4.20;1.97;;;;;;;1.78;100.00;100064.34;5054108;28;20203;-73
2024/01/05 06:19:15;;;;;;;2.97;2.13;;;;;;;1.78;100.00;100061.72;5055671;28;20214;-73
2024/01/05 06:21:42;;;;;;;2.63;1.60;;;;;;;1.78;100.00;100054.69;5057508;28;20214;-73
2024/01/05 06:24:10;;;;;;;4.23;2.10;;;;;;;1.81;100.00;100050.75;5056758;28;20215;-73
2024/01/05 06:26:36;;;;;;;3.57;1.90;;;;;;;1.81;100.00;100056.72;5063192;28;20190;-73
2024/01/05 06:29:02;;;;;;;2.87;2.10;;;;;;;1.83;100.00;100043.44;5058433;28;20209;-73
2024/01/05 06:31:29;;;;;;;2.70;1.70;;;;;;;1.82;100.00;100040.06;5058242;28;20195;-73
2024/01/05 06:33:55;;;;;;;3.17;1.73;;;;;;;1.82;100.00;100039.28;5060272;28;20201;-73
2024/01/05 06:36:22;;;;;;;4.03;2.33;;;;;;;1.84;100.00;100044.97;5061385;28;20214;-73
2024/01/05 06:38:48;;;;;;;3.57;2.10;;;;;;;1.85;100.00;100047.31;5058706;28;20207;-73
2024/01/05 06:41:15;;;;;;;2.07;1.67;;;;;;;1.86;100.00;100048.84;5065009;28;20622;-72
2024/01/05 06:43:42;;;;;;;3.57;1.80;;;;;;;1.85;100.00;100044.72;5064843;28;20202;-73
2024/01/05 06:46:08;;;;;;;2.17;1.80;;;;;;;1.88;100.00;100041.53;5058396;28;20218;-73
2024/01/05 06:48:35;;;;;;;2.27;1.70;;;;;;;1.87;100.00;100053.00;5058001;28;20243;-73
2024/01/05 06:51:01;;;;;;;3.20;1.90;;;;;;;1.89;100.00;100044.91;5061944;28;20195;-73
2024/01/05 06:53:28;;;;;;;3.73;2.00;;;;;;;1.89;100.00;100045.72;5064517;28;20203;-72
2024/01/05 06:55:55;;;;;;;2.27;1.80;;;;;;;1.91;100.00;100045.41;5061360;28;20297;-73
2024/01/05 06:58:23;;;;;;;4.30;2.20;;;;;;;1.91;100.00;100043.59;5063997;28;20199;-72
2024/01/05 07:00:50;;;;;;;3.03;2.10;;;;;;;1.94;100.00;100037.03;5067048;28;20229;-72
2024/01/05 07:03:16;;;;;;;3.07;2.13;;;;;;;1.92;100.00;100034.72;5061154;28;20187;-72
2024/01/05 07:05:42;;;;;;;2.57;1.80;;;;;;;1.95;100.00;100035.97;5060913;28;20229;-73
2024/01/05 07:08:09;;;;;;;2.37;1.83;;;;;;;1.95;100.00;100039.38;5066125;28;20202;-73
2024/01/05 07:10:35;;;;;;;2.60;2.13;;;;;;;1.97;100.00;100036.50;5062505;28;20191;-72
2024/01/05 07:13:01;;;;;;;2.70;2.07;;;;;;;1.98;100.00;100032.81;5063485;28;20199;-72
2024/01/05 07:15:30;;;;;;;4.30;3.17;;;;;;;1.98;100.00;100025.78;5068293;28;20353;-72
2024/01/05 07:17:56;;;;;;;4.03;2.30;;;;;;;1.98;100.00;100025.78;5064553;28;20260;-72
2024/01/05 07:20:22;;;;;;;4.07;2.70;;;;;;;2.00;100.00;100030.69;5061277;28;20218;-73
2024/01/05 07:22:49;;;;;;;5.50;3.50;;;;;;;2.02;100.00;100016.34;5060219;28;20206;-72
2024/01/05 07:25:15;;;;;;;3.20;2.10;;;;;;;2.02;100.00;100018.94;5060809;28;20211;-73
2024/01/05 07:27:41;;;;;;;2.93;2.10;;;;;;;2.05;100.00;100015.00;5066285;28;20198;-72
2024/01/05 07:30:08;;;;;;;3.20;2.37;;;;;;;2.05;100.00;100010.59;5062869;28;20210;-73
2024/01/05 07:32:36;;;;;;;4.00;2.37;;;;;;;2.06;100.00;100019.94;5067227;28;20190;-73
2024/01/05 07:35:04;;;;;;;3.73;2.50;;;;;;;2.09;100.00;100013.38;5068178;28;20614;-73
2024/01/05 07:37:30;;;;;;;4.83;2.80;;;;;;;2.10;100.00;100014.94;5063578;28;20801;-73
2024/01/05 07:39:56;;;;;;;4.40;2.57;;;;;;;2.12;100.00;100021.41;5068791;28;20203;-73
2024/01/05 07:42:23;;;;;;;5.10;2.83;;;;;;;2.15;100.00;100023.47;5064226;28;20202;-73
2024/01/05 07:44:51;;;;;;;3.27;2.47;;;;;;;2.15;100.00;100018.25;5065727;28;20226;-72
2024/01/05 07:47:17;;;;;;;4.30;3.33;;;;;;;2.17;100.00;100023.94;5065740;28;20198;-73
2024/01/05 07:49:45;;;;;;;5.33;3.40;;;;;;;2.20;100.00;100027.81;5066085;28;20194;-73
2024/01/05 07:52:11;;;;;;;8.20;3.60;;;;;;;2.20;100.00;100018.19;5062374;28;20201;-73
2024/01/05 07:54:40;;;;;;;4.43;3.27;;;;;;;2.22;100.00;100023.06;5063845;28;20219;-73
2024/01/05 07:57:06;;;;;;;4.33;3.27;;;;;;;2.21;100.00;100027.53;5061477;28;20202;-73
2024/01/05 07:59:32;;;;;;;4.27;3.37;;;;;;;2.24;100.00;100020.97;5064756;28;20224;-73
2024/01/05 08:01:59;;;;;;;4.47;2.83;;;;;;;2.26;100.00;100024.06;5062149;28;20202;-73
2024/01/05 08:04:25;;;;;;;4.60;2.80;;;;;;;2.27;100.00;100021.19;5065973;28;20229;-72
2024/01/05 08:06:53;;;;;;;5.33;3.63;;;;;;;2.29;100.00;100020.91;5063503;28;20244;-72
2024/01/05 08:09:19;;;;;;;3.87;2.73;;;;;;;2.29;100.00;100011.25;5065627;28;20187;-73
2024/01/05 08:11:45;;;;;;;3.70;2.53;;;;;;;2.33;100.00;100012.22;5061377;28;20195;-73
2024/01/05 08:14:12;;;;;;;3.93;2.70;;;;;;;2.35;100.00;100010.13;5063370;28;20229;-73
2024/01/05 08:16:39;;;;;;;3.73;2.60;;;;;;;2.37;100.00;100013.22;5058909;28;20231;-73
2024/01/05 08:19:05;;;;;;;4.67;2.87;;;;;;;2.42;100.00;100009.75;5065886;28;20233;-72
2024/01/05 08:21:32;;;;;;;3.63;2.73;;;;;;;2.43;100.00;100019.09;5058765;28;20782;-73
2024/01/05 08:23:59;;;;;;;4.37;2.67;;;;;;;2.46;100.00;100014.13;5058832;28;20567;-73
2024/01/05 08:26:26;;;;;;;3.83;2.80;;;;;;;2.48;100.00;100013.81;5061493;28;20680;-73
2024/01/05 08:28:52;;;;;;;4.67;2.80;;;;;;;2.49;100.00;100007.56;5066271;28;20202;-73
2024/01/05 08:31:19;;;;;;;4.10;2.87;;;;;;;2.51;100.00;100006.22;5061349;28;20894;-73
2024/01/05 08:33:45;;;;;;;3.53;2.40;;;;;;;2.54;100.00;100003.03;5064870;28;20226;-72
2024/01/05 08:36:11;;;;;;;5.70;3.20;;;;;;;2.56;100.00;100003.53;5058795;28;20202;-73
2024/01/05 08:38:38;;;;;;;3.50;3.00;;;;;;;2.58;100.00;100001.41;5065098;28;20754;-73
2024/01/05 08:41:05;;;;;;;5.57;3.20;;;;;;;2.61;100.00;100003.44;5063675;28;20222;-73
2024/01/05 08:43:32;;;;;;;4.40;2.90;;;;;;;2.63;100.00;100003.91;5061882;28;20205;-73
2024/01/05 08:45:58;;;;;;;4.43;3.37;;;;;;;2.65;100.00;99996.56;5060734;28;20254;-73
2024/01/05 08:48:25;;;;;;;6.07;4.30;;;;;;;2.67;100.00;99999.69;5063298;28;20205;-73
2024/01/05 08:50:51;;;;;;;7.13;3.30;;;;;;;2.69;100.00;100002.00;5064158;28;20198;-72
2024/01/05 08:53:20;;;;;;;4.10;2.83;;;;;;;2.73;100.00;100008.97;5057615;28;20212;-73
2024/01/05 08:55:47;;;;;;;4.67;3.10;;;;;;;2.76;100.00;100012.81;5056175;28;20222;-73
2024/01/05 08:58:14;;;;;;;3.97;2.93;;;;;;;2.78;100.00;100008.09;5058534;28;20206;-73
2024/01/05 09:00:41;;;;;;;3.80;3.13;;;;;;;2.79;100.00;99994.78;5063806;28;20215;-73
2024/01/05 09:03:07;;;;;;;6.50;3.23;;;;;;;2.83;100.00;99987.13;5060546;28;20703;-73
2024/01/05 09:05:34;;;;;;;5.27;3.43;;;;;;;2.84;100.00;99988.69;5062531;28;20245;-73
2024/01/05 09:08:00;;;;;;;5.67;3.40;;;;;;;2.88;100.00;99994.88;5058357;28;20566;-72
2024/01/05 09:10:26;;;;;;;3.97;3.07;;;;;;;2.89;100.00;99984.16;5058943;28;20207;-73
2024/01/05 09:12:53;;;;;;;6.30;3.73;;;;;;;2.93;100.00;100000.78;5064328;28;20204;-73
2024/01/05 09:15:22;;;;;;;6.90;3.10;;;;;;;2.96;100.00;99994.97;5057924;28;20820;-73
2024/01/05 09:17:49;;;;;;;4.27;3.33;;;;;;;2.96;100.00;99994.97;5063130;28;21066;-73
2024/01/05 09:20:15;;;;;;;5.33;3.33;;;;;;;2.98;100.00;99992.06;5057898;28;20222;-73
2024/01/05 09:22:41;;;;;;;9.73;5.60;;;;;;;3.01;100.00;99986.28;5063607;28;20215;-73
2024/01/05 09:25:09;;;;;;;6.00;4.10;;;;;;;3.02;100.00;99987.84;5059454;28;20222;-73
2024/01/05 09:27:35;;;;;;;6.37;4.37;;;;;;;3.03;100.00;99992.78;5061981;28;20658;-73
2024/01/05 09:30:03;;;;;;;5.60;3.70;;;;;;;3.06;100.00;99991.41;5060492;28;20190;-73
2024/01/05 09:32:31;;;;;;;9.83;6.50;;;;;;;3.08;100.00;99984.06;5061129;28;20195;-73
2024/01/05 09:34:57;;;;;;;7.27;4.87;;;;;;;3.09;100.00;99988.22;5062956;28;20222;-73
2024/01/05 09:37:23;;;;;;;12.57;8.60;;;;;;;3.10;100.00;99989.75;5056156;28;20280;-73
2024/01/05 09:39:50;;;;;;;6.57;4.10;;;;;;;3.11;100.00;100001.75;5057249;28;20215;-73
2024/01/05 09:42:16;;;;;;;9.93;5.40;;;;;;;3.12;100.00;99987.66;5063876;28;20201;-73
2024/01/05 09:44:43;;;;;;;5.97;4.30;;;;;;;3.14;100.00;99983.69;5063296;28;20307;-73
2024/01/05 09:47:10;;;;;;;7.37;4.20;;;;;;;3.13;100.00;99983.97;5060027;28;20203;-73
2024/01/05 09:49:39;;;;;;;7.03;3.60;;;;;;;3.14;100.00;99982.91;5057305;28;20219;-73
2024/01/05 09:52:06;;;;;;;4.60;3.27;;;;;;;3.15;100.00;99974.78;5063948;28;20233;-73
2024/01/05 09:54:33;;;;;;;5.43;4.50;;;;;;;3.14;100.00;99969.84;5063972;28;20224;-73
2024/01/05 09:57:01;;;;;;;4.97;3.53;;;;;;;3.15;100.00;99969.56;5065790;28;20205;-73
2024/01/05 09:59:28;;;;;;;15.27;8.73;;;;;;;3.17;100.00;99971.91;5060897;28;20205;-73
2024/01/05 10:01:55;;;;;;;9.70;6.17;;;;;;;3.16;100.00;99978.94;5062033;28;20191;-73
2024/01/05 10:04:23;;;;;;;6.90;4.57;;;;;;;3.19;100.00;99969.75;5062969;28;20211;-73
2024/01/05 10:06:59;;;;;;;6.73;3.83;;;;;;;3.19;100.00;99969.75;5059756;28;20209;-73
2024/01/05 10:09:25;;;;;;;6.03;4.30;;;;;;;3.18;100.00;99970.84;5059372;28;20205;-73
2024/01/05 10:11:52;;;;;;;6.33;3.20;;;;;;;3.19;100.00;99974.97;5075910;28;20669;-73
2024/01/05 10:14:24;;;;;;;6.33;3.27;;;;;;;3.21;100.00;99978.84;5063544;28;20589;-73
2024/01/05 10:16:51;;;;;;;5.43;3.40;;;;;;;3.23;100.00;99971.50;5059452;28;20209;-73
2024/01/05 10:19:19;;;;;;;5.50;3.40;;;;;;;3.26;100.00;99978.00;5058234;28;20202;-73
2024/01/05 10:21:46;;;;;;;6.17;3.63;;;;;;;3.26;100.00;99970.16;5062647;28;20219;-73
2024/01/05 10:24:21;;;;;;;4.57;3.00;;;;;;;3.26;100.00;99976.13;5059931;28;20217;-73
2024/01/05 10:26:47;;;;;;;7.17;3.60;;;;;;;3.29;100.00;99980.78;5054431;28;20194;-73
2024/01/05 10:29:16;;;;;;;6.10;3.63;;;;;;;3.32;100.00;99982.78;5061329;28;20195;-73
2024/01/05 10:31:43;;;;;;;4.63;3.23;;;;;;;3.33;100.00;99984.31;5062524;28;20198;-73
2024/01/05 10:34:09;;;;;;;4.67;3.07;;;;;;;3.37;100.00;99974.84;5058729;28;20291;-72
2024/01/05 10:36:36;;;;;;;4.50;2.90;;;;;;;3.37;100.00;99971.50;5061472;28;20196;-73
2024/01/05 10:39:03;;;;;;;5.47;3.17;;;;;;;3.43;100.00;99962.50;5061476;28;20194;-72
2024/01/05 10:41:32;;;;;;;4.90;3.50;;;;;;;3.45;100.00;99966.34;5056253;28;20696;-73
2024/01/05 10:43:59;;;;;;;5.47;3.37;;;;;;;3.50;100.00;99958.41;5062304;28;20441;-73
2024/01/05 10:46:26;;;;;;;6.37;5.17;;;;;;;3.51;100.00;99959.97;5058793;28;20726;-73
2024/01/05 10:48:53;;;;;;;6.43;4.47;;;;;;;3.56;100.00;99959.06;5062441;28;20199;-73
2024/01/05 10:51:19;;;;;;;5.97;3.47;;;;;;;3.60;100.00;99952.19;5056629;28;20243;-73
2024/01/05 10:53:47;;;;;;;6.83;3.57;;;;;;;3.63;100.00;99952.38;5057608;28;20209;-73
2024/01/05 10:56:14;;;;;;;7.03;5.00;;;;;;;3.69;100.00;99932.16;5054588;28;20694;-73
2024/01/05 10:58:42;;;;;;;8.13;3.60;;;;;;;3.71;100.00;99933.41;5059101;28;20739;-73
2024/01/05 11:01:11;;;;;;;4.53;3.13;;;;;;;3.77;100.00;99931.44;5056682;28;20224;-73
2024/01/05 11:03:42;;;;;;;5.97;3.30;;;;;;;3.82;100.00;99934.72;5061748;28;20211;-73
2024/01/05 11:06:10;;;;;;;5.70;3.27;;;;;;;3.85;100.00;99923.69;5079085;28;20213;-73
2024/01/05 11:08:46;;;;;;;5.83;3.50;;;;;;;3.90;100.00;99915.75;5063085;28;20198;-73
2024/01/05 11:11:26;;;;;;;7.07;3.40;;;;;;;3.94;100.00;99919.28;5055660;28;20616;-73
2024/01/05 11:14:09;;;;;;;5.27;3.30;;;;;;;3.98;100.00;99907.19;5059899;28;20201;-73
2024/01/05 11:16:55;;;;;;;4.73;3.27;;;;;;;4.04;100.00;99898.16;5061467;28;20729;-73
2024/01/05 11:19:37;;;;;;;4.33;2.87;;;;;;;4.09;100.00;99892.03;5059423;28;20199;-73
2024/01/05 11:22:06;;;;;;;4.40;3.00;;;;;;;4.13;100.00;99890.34;5056173;28;20595;-73
2024/01/05 11:24:34;;;;;;;7.60;3.53;;;;;;;4.16;100.00;99877.50;5060923;28;20225;-72
2024/01/05 11:27:00;;;;;;;4.93;3.40;;;;;;;4.17;100.00;99886.88;5060655;28;20236;-73